createdAt,value
2023-04-16T00:01:07.165Z,98942.21
2023-04-16T00:03:35.317Z,98943.95
2023-04-16T00:06:03.300Z,98942.04
2023-04-16T00:08:31.454Z,98943.96
2023-04-16T00:10:59.245Z,98943.80
2023-04-16T00:13:28.109Z,98949.34
2023-04-16T00:15:55.900Z,98952.29
2023-04-16T00:18:23.657Z,98956.45
2023-04-16T00:20:51.320Z,98956.29
2023-04-16T00:23:19.087Z,98952.11
2023-04-16T00:25:46.749Z,98956.60
2023-04-16T00:28:14.541Z,98956.42
2023-04-16T00:30:42.309Z,98951.73
2023-04-16T00:33:10.246Z,98952.27
2023-04-16T00:35:38.005Z,98953.98
2023-04-16T00:38:05.665Z,98953.09
2023-04-16T00:40:33.330Z,98951.20
2023-04-16T00:43:01.000Z,98955.88
2023-04-16T00:45:28.653Z,98958.66
2023-04-16T00:47:57.138Z,98960.55
2023-04-16T00:50:26.023Z,98967.16
2023-04-16T00:52:53.684Z,98970.98
2023-04-16T00:55:21.657Z,98973.09
2023-04-16T00:57:49.321Z,98972.39
2023-04-16T01:00:16.974Z,98971.19
2023-04-16T01:02:44.743Z,98972.41
2023-04-16T01:05:12.708Z,98973.98
2023-04-16T01:07:40.479Z,98968.08
2023-04-16T01:10:08.136Z,98970.17
2023-04-16T01:12:36.007Z,98975.75
2023-04-16T01:15:03.670Z,98977.84
2023-04-16T01:17:31.367Z,98979.24
2023-04-16T01:19:59.302Z,98982.20
2023-04-16T01:22:27.062Z,98980.84
2023-04-16T01:24:54.700Z,98982.05
2023-04-16T01:27:22.388Z,98979.78
2023-04-16T01:29:50.061Z,98978.73
2023-04-16T01:32:17.914Z,98978.91
2023-04-16T01:34:45.683Z,98979.97
2023-04-16T01:37:13.454Z,98983.45
2023-04-16T01:39:41.241Z,98983.98
2023-04-16T01:42:08.978Z,98993.58
2023-04-16T01:44:36.792Z,98992.53
2023-04-16T01:47:04.698Z,98999.48
2023-04-16T01:49:32.469Z,99003.83
2023-04-16T01:52:00.234Z,99003.31
2023-04-16T01:54:27.997Z,99005.55
2023-04-16T01:56:55.879Z,99008.86
2023-04-16T01:59:23.632Z,99011.64
2023-04-16T02:01:51.646Z,99015.11
2023-04-16T02:04:19.470Z,99011.29
2023-04-16T02:06:47.132Z,99008.17
2023-04-16T02:09:14.889Z,99007.30
2023-04-16T02:11:42.553Z,99015.98
2023-04-16T02:14:10.218Z,99017.72
2023-04-16T02:16:38.116Z,99012.85
2023-04-16T02:19:05.941Z,99018.42
2023-04-16T02:21:34.115Z,99012.34
2023-04-16T02:24:01.875Z,99016.84
2023-04-16T02:26:29.949Z,99019.98
2023-04-16T02:28:57.609Z,99016.85
2023-04-16T02:31:25.301Z,99017.21
2023-04-16T02:33:52.958Z,99019.80
2023-04-16T02:36:20.770Z,99021.19
2023-04-16T02:38:48.669Z,99022.22
2023-04-16T02:41:16.427Z,99022.41
2023-04-16T02:43:44.296Z,99028.47
2023-04-16T02:46:12.087Z,99034.55
2023-04-16T02:48:39.828Z,99039.06
2023-04-16T02:51:07.497Z,99039.59
2023-04-16T02:53:35.254Z,99044.95
2023-04-16T02:56:03.019Z,99043.41
2023-04-16T02:58:30.792Z,99042.71
2023-04-16T03:00:58.591Z,99042.89
2023-04-16T03:03:26.351Z,99046.70
2023-04-16T03:05:54.179Z,99051.21
2023-04-16T03:08:21.847Z,99055.73
2023-04-16T03:10:49.599Z,99059.02
2023-04-16T03:13:17.365Z,99054.85
2023-04-16T03:15:45.003Z,99050.86
2023-04-16T03:18:12.790Z,99055.02
2023-04-16T03:20:40.758Z,99059.53
2023-04-16T03:23:08.425Z,99060.91
2023-04-16T03:25:36.803Z,99060.21
2023-04-16T03:28:05.282Z,99059.02
2023-04-16T03:30:33.046Z,99062.47
2023-04-16T03:33:01.467Z,99069.60
2023-04-16T03:35:29.396Z,99069.77
2023-04-16T03:37:57.158Z,99075.15
2023-04-16T03:40:24.823Z,99075.84
2023-04-16T03:42:52.481Z,99075.66
2023-04-16T03:45:20.245Z,99074.45
2023-04-16T03:47:52.852Z,99078.45
2023-04-16T03:50:20.791Z,99084.67
2023-04-16T03:52:49.579Z,99082.95
2023-04-16T03:55:17.344Z,99084.15
2023-04-16T03:57:45.218Z,99089.52
2023-04-16T04:00:12.987Z,99092.64
2023-04-16T04:02:40.764Z,99096.80
2023-04-16T04:05:08.716Z,99098.88
2023-04-16T04:07:36.575Z,99103.57
2023-04-16T04:10:04.293Z,99105.46
2023-04-16T04:12:32.100Z,99105.65
2023-04-16T04:14:59.869Z,99108.60
2023-04-16T04:17:27.659Z,99107.04
2023-04-16T04:22:28.177Z,99108.43
2023-04-16T04:24:55.844Z,99115.04
2023-04-16T04:27:23.606Z,99117.14
2023-04-16T04:29:51.260Z,99123.73
2023-04-16T04:32:19.073Z,99127.90
2023-04-16T04:34:46.796Z,99131.20
2023-04-16T04:37:14.459Z,99130.86
2023-04-16T04:39:42.218Z,99133.45
2023-04-16T04:42:09.881Z,99136.94
2023-04-16T04:44:37.573Z,99138.67
2023-04-16T04:47:05.303Z,99143.88
2023-04-16T04:49:32.921Z,99148.05
2023-04-16T04:52:01.960Z,99149.79
2023-04-16T04:54:29.621Z,99158.84
2023-04-16T04:56:57.384Z,99163.35
2023-04-16T04:59:25.154Z,99169.79
2023-04-16T05:01:52.840Z,99173.61
2023-04-16T05:04:20.630Z,99174.32
2023-04-16T05:06:48.336Z,99175.37
2023-04-16T05:09:16.308Z,99180.74
2023-04-16T05:11:43.972Z,99179.89
2023-04-16T05:14:11.632Z,99180.94
2023-04-16T05:16:39.348Z,99180.60
2023-04-16T05:19:07.318Z,99184.98
2023-04-16T05:21:35.133Z,99188.80
2023-04-16T05:24:02.789Z,99188.63
2023-04-16T05:26:30.662Z,99189.31
2023-04-16T05:28:58.422Z,99189.66
2023-04-16T05:31:26.227Z,99196.08
2023-04-16T05:33:54.054Z,99195.92
2023-04-16T05:36:21.817Z,99191.42
2023-04-16T05:38:49.478Z,99190.73
2023-04-16T05:41:17.138Z,99193.86
2023-04-16T05:43:44.903Z,99196.64
2023-04-16T05:46:12.599Z,99194.91
2023-04-16T05:48:40.348Z,99198.55
2023-04-16T05:51:07.990Z,99200.12
2023-04-16T05:53:35.754Z,99205.33
2023-04-16T05:56:03.516Z,99212.12
2023-04-16T05:58:31.175Z,99210.90
2023-04-16T06:00:58.850Z,99211.06
2023-04-16T06:03:26.641Z,99212.63
2023-04-16T06:05:54.558Z,99220.63
2023-04-16T06:08:22.544Z,99221.48
2023-04-16T06:10:50.203Z,99220.96
2023-04-16T06:13:18.176Z,99227.05
2023-04-16T06:15:45.880Z,99230.52
2023-04-16T06:18:13.687Z,99235.73
2023-04-16T06:20:41.467Z,99237.29
2023-04-16T06:23:09.129Z,99239.72
2023-04-16T06:25:36.789Z,99246.67
2023-04-16T06:28:04.453Z,99243.36
2023-04-16T06:30:32.115Z,99245.62
2023-04-16T06:32:59.967Z,99243.52
2023-04-16T06:35:27.845Z,99250.63
2023-04-16T06:37:55.814Z,99253.77
2023-04-16T06:40:23.480Z,99251.83
2023-04-16T06:42:51.254Z,99254.95
2023-04-16T06:45:19.002Z,99254.05
2023-04-16T06:47:48.276Z,99251.44
2023-04-16T06:50:16.064Z,99252.81
2023-04-16T06:52:43.831Z,99255.21
2023-04-16T06:55:11.491Z,99255.54
2023-04-16T06:57:40.905Z,99255.88
2023-04-16T07:00:08.660Z,99253.08
2023-04-16T07:02:36.578Z,99259.33
2023-04-16T07:05:04.829Z,99265.21
2023-04-16T07:07:32.581Z,99264.68
2023-04-16T07:10:00.573Z,99265.71
2023-04-16T07:12:28.306Z,99274.10
2023-04-16T07:14:55.960Z,99269.92
2023-04-16T07:17:23.625Z,99269.89
2023-04-16T07:19:51.288Z,99270.90
2023-04-16T07:22:19.153Z,99271.04
2023-04-16T07:24:46.819Z,99277.63
2023-04-16T07:27:14.475Z,99280.21
2023-04-16T07:29:42.236Z,99273.40
2023-04-16T07:32:10.032Z,99273.55
2023-04-16T07:34:38.391Z,99276.98
2023-04-16T07:37:06.359Z,99281.67
2023-04-16T07:39:34.012Z,99283.91
2023-04-16T07:42:02.302Z,99282.84
2023-04-16T07:44:29.958Z,99289.80
2023-04-16T07:46:57.641Z,99290.79
2023-04-16T07:49:25.378Z,99293.56
2023-04-16T07:51:53.039Z,99294.59
2023-04-16T07:54:21.067Z,99303.11
2023-04-16T07:56:48.772Z,99303.26
2023-04-16T07:59:22.915Z,99300.78
2023-04-16T08:01:52.006Z,99302.66
2023-04-16T08:04:25.527Z,99304.34
2023-04-16T08:06:53.965Z,99311.06
2023-04-16T08:09:21.825Z,99311.92
2023-04-16T08:11:50.112Z,99312.55
2023-04-16T08:14:17.993Z,99312.82
2023-04-16T08:16:45.632Z,99315.91
2023-04-16T08:19:13.485Z,99311.33
2023-04-16T08:21:41.231Z,99310.06
2023-04-16T08:24:08.929Z,99312.81
2023-04-16T08:26:36.687Z,99311.70
2023-04-16T08:29:04.354Z,99308.73
2023-04-16T08:31:32.100Z,99305.39
2023-04-16T08:34:02.101Z,99303.09
2023-04-16T08:36:29.799Z,99307.23
2023-04-16T08:38:57.562Z,99307.89
2023-04-16T08:41:25.533Z,99313.25
2023-04-16T08:43:53.187Z,99318.48
2023-04-16T08:46:20.962Z,99314.95
2023-04-16T08:48:48.715Z,99322.04
2023-04-16T08:51:16.479Z,99319.89
2023-04-16T08:53:44.146Z,99319.47
2023-04-16T08:56:11.904Z,99318.34
2023-04-16T08:58:39.593Z,99317.02
2023-04-16T09:01:07.329Z,99317.95
2023-04-16T09:03:36.526Z,99316.48
2023-04-16T09:06:04.652Z,99326.00
2023-04-16T09:08:32.463Z,99324.86
2023-04-16T09:11:00.146Z,99318.65
2023-04-16T09:13:27.891Z,99318.36
2023-04-16T09:15:57.397Z,99319.80
2023-04-16T09:18:25.160Z,99324.72
2023-04-16T09:20:52.925Z,99330.54
2023-04-16T09:23:20.690Z,99330.37
2023-04-16T09:25:48.355Z,99329.88
2023-04-16T09:28:16.116Z,99330.63
2023-04-16T09:30:43.797Z,99330.89
2023-04-16T09:33:11.541Z,99333.91
2023-04-16T09:35:39.209Z,99328.27
2023-04-16T09:38:06.972Z,99330.30
2023-04-16T09:40:34.629Z,99333.37
2023-04-16T09:43:02.323Z,99337.41
2023-04-16T09:45:30.216Z,99338.79
2023-04-16T09:47:57.994Z,99337.77
2023-04-16T09:50:25.788Z,99339.14
2023-04-16T09:52:53.561Z,99339.63
2023-04-16T09:55:21.318Z,99338.86
2023-04-16T09:57:48.987Z,99340.20
2023-04-16T10:00:16.745Z,99338.95
2023-04-16T10:02:44.588Z,99339.75
2023-04-16T10:05:12.684Z,99335.08
2023-04-16T10:07:40.655Z,99337.58
2023-04-16T10:10:08.316Z,99340.08
2023-04-16T10:12:36.088Z,99338.69
2023-04-16T10:15:04.153Z,99336.88
2023-04-16T10:17:31.837Z,99341.35
2023-04-16T10:20:00.107Z,99337.05
2023-04-16T10:22:28.058Z,99335.11
2023-04-16T10:24:55.816Z,99334.58
2023-04-16T10:27:23.593Z,99332.48
2023-04-16T10:29:51.346Z,99333.70
2023-04-16T10:32:21.092Z,99332.03
2023-04-16T10:34:48.924Z,99336.25
2023-04-16T10:37:18.329Z,99336.69
2023-04-16T10:39:46.302Z,99332.27
2023-04-16T10:42:14.055Z,99333.90
2023-04-16T10:44:44.297Z,99336.63
2023-04-16T10:47:13.186Z,99334.28
2023-04-16T10:49:41.237Z,99334.39
2023-04-16T10:52:09.105Z,99333.37
2023-04-16T10:54:41.588Z,99336.95
2023-04-16T10:57:09.387Z,99339.97
2023-04-16T10:59:37.184Z,99338.33
2023-04-16T11:02:04.938Z,99343.23
2023-04-16T11:04:32.826Z,99344.11
2023-04-16T11:07:00.708Z,99346.51
2023-04-16T11:09:28.381Z,99346.84
2023-04-16T11:11:56.236Z,99345.88
2023-04-16T11:14:23.896Z,99344.31
2023-04-16T11:16:51.568Z,99341.65
2023-04-16T11:19:19.221Z,99341.89
2023-04-16T11:21:47.082Z,99340.15
2023-04-16T11:24:14.750Z,99342.38
2023-04-16T11:26:42.419Z,99340.83
2023-04-16T11:29:10.242Z,99342.65
2023-04-16T11:31:38.308Z,99340.90
2023-04-16T11:34:08.597Z,99345.43
2023-04-16T11:36:36.331Z,99342.70
2023-04-16T11:39:03.990Z,99340.38
2023-04-16T11:41:31.656Z,99332.95
2023-04-16T11:43:59.317Z,99331.16
2023-04-16T11:46:27.940Z,99327.39
2023-04-16T11:48:56.346Z,99327.54
2023-04-16T11:51:24.312Z,99327.08
2023-04-16T11:53:56.362Z,99324.80
2023-04-16T11:56:24.179Z,99323.70
2023-04-16T11:58:51.843Z,99322.64
2023-04-16T12:01:19.504Z,99317.73
2023-04-16T12:03:49.973Z,99314.17
2023-04-16T12:06:17.797Z,99317.65
2023-04-16T12:08:45.565Z,99312.83
2023-04-16T12:11:13.231Z,99314.01
2023-04-16T12:13:40.891Z,99310.56
2023-04-16T12:16:08.653Z,99311.39
2023-04-16T12:18:36.928Z,99309.28
2023-04-16T12:21:04.693Z,99305.88
2023-04-16T12:23:32.360Z,99305.75
2023-04-16T12:26:02.706Z,99310.61
2023-04-16T12:28:31.390Z,99310.20
2023-04-16T12:30:59.170Z,99306.88
2023-04-16T12:33:26.992Z,99307.04
2023-04-16T12:35:55.175Z,99305.08
2023-04-16T12:38:24.617Z,99309.50
2023-04-16T12:40:52.650Z,99309.11
2023-04-16T12:43:20.301Z,99307.77
2023-04-16T12:45:47.999Z,99306.94
2023-04-16T12:48:15.846Z,99309.65
2023-04-16T12:50:44.706Z,99305.91
2023-04-16T12:53:12.586Z,99303.44
2023-04-16T12:55:40.212Z,99300.36
2023-04-16T12:58:08.978Z,99302.42
2023-04-16T13:00:38.237Z,99304.13
2023-04-16T13:03:06.194Z,99298.56
2023-04-16T13:05:33.969Z,99299.16
2023-04-16T13:08:01.633Z,99298.39
2023-04-16T13:10:29.403Z,99297.20
2023-04-16T13:12:57.265Z,99296.33
2023-04-16T13:15:25.035Z,99298.80
2023-04-16T13:17:52.762Z,99304.10
2023-04-16T13:20:22.476Z,99307.40
2023-04-16T13:22:52.005Z,99302.71
2023-04-16T13:25:19.676Z,99305.55
2023-04-16T13:27:47.328Z,99300.59
2023-04-16T13:30:15.097Z,99302.07
2023-04-16T13:32:42.886Z,99297.11
2023-04-16T13:35:10.949Z,99299.42
2023-04-16T13:37:38.700Z,99300.31
2023-04-16T13:40:06.556Z,99300.55
2023-04-16T13:42:34.324Z,99298.36
2023-04-16T13:45:02.416Z,99297.73
2023-04-16T13:47:30.382Z,99294.06
2023-04-16T13:49:58.140Z,99299.27
2023-04-16T13:52:25.896Z,99301.27
2023-04-16T13:54:53.551Z,99299.40
2023-04-16T13:57:21.313Z,99297.80
2023-04-16T13:59:49.076Z,99299.61
2023-04-16T14:02:16.768Z,99302.15
2023-04-16T14:04:44.503Z,99299.52
2023-04-16T14:07:12.165Z,99299.83
2023-04-16T14:09:39.828Z,99297.79
2023-04-16T14:12:07.617Z,99297.52
2023-04-16T14:14:35.367Z,99296.09
2023-04-16T14:17:03.531Z,99293.06
2023-04-16T14:19:32.934Z,99295.33
2023-04-16T14:22:00.912Z,99295.50
2023-04-16T14:24:28.662Z,99290.42
2023-04-16T14:26:56.326Z,99292.62
2023-04-16T14:29:23.993Z,99298.23
2023-04-16T14:31:51.805Z,99300.62
2023-04-16T14:34:19.624Z,99297.80
2023-04-16T14:36:49.326Z,99294.31
2023-04-16T14:39:17.703Z,99289.84
2023-04-16T14:41:45.365Z,99294.85
2023-04-16T14:44:13.037Z,99295.23
2023-04-16T14:46:41.308Z,99297.30
2023-04-16T14:49:11.932Z,99297.33
2023-04-16T14:51:40.641Z,99296.59
2023-04-16T14:54:08.392Z,99296.98
2023-04-16T14:56:36.355Z,99295.91
2023-04-16T14:59:04.124Z,99294.97
2023-04-16T15:01:32.364Z,99294.70
2023-04-16T15:04:01.971Z,99295.51
2023-04-16T15:06:30.450Z,99296.65
2023-04-16T15:08:58.154Z,99295.71
2023-04-16T15:11:25.910Z,99297.24
2023-04-16T15:13:53.676Z,99294.77
2023-04-16T15:16:21.704Z,99293.77
2023-04-16T15:18:50.278Z,99294.68
2023-04-16T15:21:18.096Z,99287.96
2023-04-16T15:23:45.858Z,99289.13
2023-04-16T15:26:13.624Z,99292.52
2023-04-16T15:28:41.592Z,99288.93
2023-04-16T15:31:09.397Z,99290.45
2023-04-16T15:33:37.034Z,99290.64
2023-04-16T15:36:04.788Z,99295.97
2023-04-16T15:38:32.553Z,99297.63
2023-04-16T15:41:01.351Z,99300.91
2023-04-16T15:43:30.025Z,99298.64
2023-04-16T15:45:57.943Z,99298.11
2023-04-16T15:48:25.960Z,99297.52
2023-04-16T15:50:53.727Z,99301.23
2023-04-16T15:53:21.384Z,99302.27
2023-04-16T15:55:52.678Z,99306.45
2023-04-16T15:58:21.225Z,99310.21
2023-04-16T16:00:50.414Z,99308.92
2023-04-16T16:03:18.398Z,99309.19
2023-04-16T16:05:46.554Z,99314.66
2023-04-16T16:08:14.216Z,99313.62
2023-04-16T16:10:42.088Z,99316.65
2023-04-16T16:13:13.333Z,99318.98
2023-04-16T16:15:41.614Z,99313.77
2023-04-16T16:18:09.387Z,99315.23
2023-04-16T16:20:37.549Z,99316.82
2023-04-16T16:23:05.322Z,99319.52
2023-04-16T16:25:33.076Z,99319.98
2023-04-16T16:28:00.846Z,99322.54
2023-04-16T16:30:28.598Z,99323.77
2023-04-16T16:32:56.484Z,99332.55
2023-04-16T16:35:24.641Z,99329.15
2023-04-16T16:37:57.424Z,99331.85
2023-04-16T16:40:25.081Z,99327.73
2023-04-16T16:42:52.986Z,99332.10
2023-04-16T16:45:20.818Z,99336.06
2023-04-16T16:47:49.242Z,99337.56
2023-04-16T16:50:17.159Z,99335.34
2023-04-16T16:52:44.928Z,99334.91
2023-04-16T16:55:12.700Z,99335.45
2023-04-16T16:57:40.461Z,99340.06
2023-04-16T17:00:19.918Z,99342.29
2023-04-16T17:02:48.836Z,99340.98
2023-04-16T17:05:16.857Z,99342.52
2023-04-16T17:07:44.630Z,99345.11
2023-04-16T17:10:13.508Z,99344.77
2023-04-16T17:12:41.190Z,99345.70
2023-04-16T17:15:08.936Z,99348.80
2023-04-16T17:17:37.059Z,99349.15
2023-04-16T17:20:10.205Z,99354.70
2023-04-16T17:22:37.964Z,99355.30
2023-04-16T17:25:05.728Z,99356.42
2023-04-16T17:27:34.525Z,99358.80
2023-04-16T17:30:02.290Z,99364.29
2023-04-16T17:32:30.295Z,99359.42
2023-04-16T17:34:58.123Z,99364.02
2023-04-16T17:37:26.186Z,99364.02
2023-04-16T17:39:53.956Z,99361.63
2023-04-16T17:42:22.034Z,99363.62
2023-04-16T17:44:49.888Z,99368.20
2023-04-16T17:47:17.657Z,99372.44
2023-04-16T17:49:45.620Z,99375.09
2023-04-16T17:52:13.391Z,99373.70
2023-04-16T17:54:41.253Z,99372.11
2023-04-16T17:57:09.117Z,99375.21
2023-04-16T17:59:37.291Z,99375.55
2023-04-16T18:02:05.188Z,99373.77
2023-04-16T18:04:33.311Z,99375.48
2023-04-16T18:07:01.297Z,99378.23
2023-04-16T18:09:29.269Z,99375.57
2023-04-16T18:11:59.695Z,99379.02
2023-04-16T18:14:27.774Z,99380.55
2023-04-16T18:16:55.432Z,99379.41
2023-04-16T18:19:23.101Z,99383.20
2023-04-16T18:21:50.852Z,99381.19
2023-04-16T18:24:18.523Z,99383.59
2023-04-16T18:26:47.113Z,99383.02
2023-04-16T18:29:15.220Z,99386.45
2023-04-16T18:31:43.527Z,99386.90
2023-04-16T18:34:12.547Z,99387.34
2023-04-16T18:36:40.623Z,99386.73
2023-04-16T18:39:08.479Z,99393.98
2023-04-16T18:41:36.751Z,99397.08
2023-04-16T18:44:04.511Z,99397.84
2023-04-16T18:46:32.333Z,99398.48
2023-04-16T18:49:00.357Z,99397.88
2023-04-16T18:51:28.118Z,99403.89
2023-04-16T18:53:55.788Z,99400.46
2023-04-16T18:56:23.437Z,99401.04
2023-04-16T18:58:51.200Z,99400.56
2023-04-16T19:01:18.923Z,99402.16
2023-04-16T19:03:46.747Z,99401.49
2023-04-16T19:06:14.504Z,99402.21
2023-04-16T19:08:42.167Z,99403.48
2023-04-16T19:11:09.920Z,99411.10
2023-04-16T19:13:38.814Z,99415.92
2023-04-16T19:16:11.438Z,99415.09
2023-04-16T19:18:39.774Z,99419.67
2023-04-16T19:21:07.562Z,99413.23
2023-04-16T19:23:35.402Z,99413.41
2023-04-16T19:26:03.062Z,99414.67
2023-04-16T19:28:32.872Z,99415.98
2023-04-16T19:31:00.743Z,99413.08
2023-04-16T19:33:28.709Z,99408.23
2023-04-16T19:35:56.473Z,99406.55
2023-04-16T19:38:24.238Z,99408.50
2023-04-16T19:40:52.004Z,99409.58
2023-04-16T19:43:19.665Z,99408.90
2023-04-16T19:45:47.577Z,99409.08
2023-04-16T19:48:15.400Z,99410.85
2023-04-16T19:50:43.123Z,99405.97
2023-04-16T19:53:11.142Z,99405.28
2023-04-16T19:55:38.998Z,99405.46
2023-04-16T19:58:07.056Z,99408.13
2023-04-16T20:00:35.346Z,99406.23
2023-04-16T20:03:03.062Z,99408.02
2023-04-16T20:05:30.880Z,99407.88
2023-04-16T20:07:58.633Z,99410.70
2023-04-16T20:10:26.810Z,99410.20
2023-04-16T20:12:54.480Z,99405.36
2023-04-16T20:15:22.541Z,99404.86
2023-04-16T20:17:50.614Z,99402.98
2023-04-16T20:20:18.485Z,99405.45
2023-04-16T20:22:46.350Z,99403.58
2023-04-16T20:25:14.618Z,99406.25
2023-04-16T20:27:42.281Z,99404.88
2023-04-16T20:30:09.943Z,99410.14
2023-04-16T20:32:37.720Z,99415.05
2023-04-16T20:35:10.344Z,99416.46
2023-04-16T20:37:42.463Z,99417.71
2023-04-16T20:40:11.093Z,99416.67
2023-04-16T20:42:39.006Z,99415.63
2023-04-16T20:45:07.482Z,99413.88
2023-04-16T20:47:35.293Z,99414.22
2023-04-16T20:50:03.222Z,99415.79
2023-04-16T20:52:31.000Z,99417.54
2023-04-16T20:54:58.644Z,99418.74
2023-04-16T20:57:28.253Z,99415.44
2023-04-16T20:59:56.029Z,99415.57
2023-04-16T21:02:24.499Z,99409.59
2023-04-16T21:04:53.225Z,99410.26
2023-04-16T21:07:21.461Z,99411.14
2023-04-16T21:09:49.225Z,99409.57
2023-04-16T21:12:16.888Z,99412.33
2023-04-16T21:14:44.654Z,99404.65
2023-04-16T21:17:12.411Z,99403.79
2023-04-16T21:19:40.493Z,99401.88
2023-04-16T21:22:08.148Z,99405.20
2023-04-16T21:24:36.015Z,99404.67
2023-04-16T21:27:03.676Z,99406.27
2023-04-16T21:29:31.466Z,99404.55
2023-04-16T21:31:59.293Z,99403.54
2023-04-16T21:34:27.179Z,99407.44
2023-04-16T21:36:54.845Z,99406.08
2023-04-16T21:39:22.503Z,99407.16
2023-04-16T21:41:50.162Z,99404.24
2023-04-16T21:44:17.830Z,99407.95
2023-04-16T21:46:45.717Z,99408.13
2023-04-16T21:49:13.884Z,99404.98
2023-04-16T21:51:43.280Z,99409.17
2023-04-16T21:54:11.036Z,99406.93
2023-04-16T21:56:39.001Z,99407.46
2023-04-16T21:59:06.661Z,99402.94
2023-04-16T22:01:34.327Z,99401.73
2023-04-16T22:04:02.258Z,99401.58
2023-04-16T22:06:30.052Z,99405.44
2023-04-16T22:08:59.049Z,99408.25
2023-04-16T22:11:26.707Z,99407.21
2023-04-16T22:13:57.969Z,99409.16
2023-04-16T22:16:26.009Z,99413.38
2023-04-16T22:18:55.221Z,99411.13
2023-04-16T22:21:22.890Z,99409.23
2023-04-16T22:23:51.171Z,99412.88
2023-04-16T22:26:18.926Z,99414.96
2023-04-16T22:28:46.789Z,99414.98
2023-04-16T22:31:14.453Z,99415.69
2023-04-16T22:33:42.119Z,99419.19
2023-04-16T22:36:09.775Z,99412.05
2023-04-16T22:38:38.971Z,99413.98
2023-04-16T22:41:06.637Z,99413.30
2023-04-16T22:43:37.180Z,99413.66
2023-04-16T22:46:05.037Z,99413.15
2023-04-16T22:48:32.895Z,99414.38
2023-04-16T22:51:00.770Z,99417.17
2023-04-16T22:53:28.628Z,99412.63
2023-04-16T22:55:56.597Z,99415.42
2023-04-16T22:58:24.259Z,99413.70
2023-04-16T23:00:56.876Z,99416.14
2023-04-16T23:03:24.688Z,99412.66
2023-04-16T23:05:52.464Z,99417.20
2023-04-16T23:08:20.228Z,99413.21
2023-04-16T23:10:47.892Z,99411.98
2023-04-16T23:13:15.868Z,99407.31
2023-04-16T23:15:43.979Z,99407.33
2023-04-16T23:18:12.254Z,99410.30
2023-04-16T23:20:40.077Z,99408.05
2023-04-16T23:23:07.727Z,99404.36
2023-04-16T23:25:35.498Z,99405.41
2023-04-16T23:28:03.571Z,99408.92
2023-04-16T23:30:31.239Z,99404.91
2023-04-16T23:32:58.932Z,99407.70
2023-04-16T23:35:26.771Z,99404.92
2023-04-16T23:37:54.422Z,99409.27
2023-04-16T23:40:22.085Z,99410.14
2023-04-16T23:42:49.722Z,99407.18
2023-04-16T23:45:17.421Z,99413.98
2023-04-16T23:47:45.511Z,99413.47
2023-04-16T23:50:13.350Z,99415.02
2023-04-16T23:52:41.112Z,99416.23
2023-04-16T23:55:08.773Z,99416.08
2023-04-16T23:57:36.434Z,99415.71
